sensor_id;sensor_type;location;lat;lon;timestamp;P1;durP1;ratioP1;P2;durP2;ratioP2
15202;SDS011;7702;51.046;5.184;2023-07-13T00:02:23;2.60;;;1.67;;
15202;SDS011;7702;51.046;5.184;2023-07-13T00:04:49;5.00;;;1.70;;
15202;SDS011;7702;51.046;5.184;2023-07-13T00:07:15;3.97;;;1.87;;
15202;SDS011;7702;51.046;5.184;2023-07-13T00:09:46;4.03;;;1.67;;
15202;SDS011;7702;51.046;5.184;2023-07-13T00:12:29;5.63;;;1.70;;
15202;SDS011;7702;51.046;5.184;2023-07-13T00:14:57;3.00;;;1.20;;
15202;SDS011;7702;51.046;5.184;2023-07-13T00:17:26;3.37;;;1.30;;
15202;SDS011;7702;51.046;5.184;2023-07-13T00:19:52;2.83;;;1.50;;
15202;SDS011;7702;51.046;5.184;2023-07-13T00:22:18;5.50;;;1.57;;
15202;SDS011;7702;51.046;5.184;2023-07-13T00:24:44;6.30;;;1.73;;
15202;SDS011;7702;51.046;5.184;2023-07-13T00:27:11;7.57;;;1.97;;
15202;SDS011;7702;51.046;5.184;2023-07-13T00:29:36;4.47;;;1.80;;
15202;SDS011;7702;51.046;5.184;2023-07-13T00:32:03;3.27;;;2.00;;
15202;SDS011;7702;51.046;5.184;2023-07-13T00:34:30;2.90;;;1.50;;
15202;SDS011;7702;51.046;5.184;2023-07-13T00:36:56;4.20;;;1.70;;
15202;SDS011;7702;51.046;5.184;2023-07-13T00:39:21;2.43;;;1.57;;
15202;SDS011;7702;51.046;5.184;2023-07-13T00:41:48;3.93;;;1.50;;
15202;SDS011;7702;51.046;5.184;2023-07-13T00:44:14;5.80;;;1.80;;
15202;SDS011;7702;51.046;5.184;2023-07-13T00:46:41;3.23;;;1.67;;
15202;SDS011;7702;51.046;5.184;2023-07-13T00:49:07;6.00;;;2.67;;
15202;SDS011;7702;51.046;5.184;2023-07-13T00:51:49;6.93;;;1.80;;
15202;SDS011;7702;51.046;5.184;2023-07-13T00:54:20;4.90;;;1.90;;
15202;SDS011;7702;51.046;5.184;2023-07-13T00:56:52;3.60;;;1.50;;
15202;SDS011;7702;51.046;5.184;2023-07-13T00:59:20;5.47;;;1.93;;
15202;SDS011;7702;51.046;5.184;2023-07-13T01:01:47;5.07;;;1.80;;
15202;SDS011;7702;51.046;5.184;2023-07-13T01:04:13;4.57;;;1.50;;
15202;SDS011;7702;51.046;5.184;2023-07-13T01:06:39;6.07;;;2.20;;
15202;SDS011;7702;51.046;5.184;2023-07-13T01:09:06;4.37;;;1.93;;
15202;SDS011;7702;51.046;5.184;2023-07-13T01:11:33;8.53;;;1.70;;
15202;SDS011;7702;51.046;5.184;2023-07-13T01:14:00;5.20;;;1.60;;
15202;SDS011;7702;51.046;5.184;2023-07-13T01:16:32;5.77;;;1.93;;
15202;SDS011;7702;51.046;5.184;2023-07-13T01:19:00;7.43;;;1.93;;
15202;SDS011;7702;51.046;5.184;2023-07-13T01:21:27;7.37;;;2.07;;
15202;SDS011;7702;51.046;5.184;2023-07-13T01:23:55;7.73;;;2.33;;
15202;SDS011;7702;51.046;5.184;2023-07-13T01:26:21;3.30;;;1.60;;
15202;SDS011;7702;51.046;5.184;2023-07-13T01:28:46;4.77;;;2.33;;
15202;SDS011;7702;51.046;5.184;2023-07-13T01:31:12;4.63;;;2.33;;
15202;SDS011;7702;51.046;5.184;2023-07-13T01:33:38;4.47;;;1.70;;
15202;SDS011;7702;51.046;5.184;2023-07-13T01:36:08;5.13;;;2.13;;
15202;SDS011;7702;51.046;5.184;2023-07-13T01:38:35;6.03;;;2.07;;
15202;SDS011;7702;51.046;5.184;2023-07-13T01:41:01;7.50;;;2.47;;
15202;SDS011;7702;51.046;5.184;2023-07-13T01:43:28;4.03;;;1.97;;
15202;SDS011;7702;51.046;5.184;2023-07-13T01:45:54;8.00;;;2.33;;
15202;SDS011;7702;51.046;5.184;2023-07-13T01:48:19;5.03;;;2.10;;
15202;SDS011;7702;51.046;5.184;2023-07-13T01:50:45;3.33;;;2.27;;
15202;SDS011;7702;51.046;5.184;2023-07-13T01:53:12;3.90;;;2.10;;
15202;SDS011;7702;51.046;5.184;2023-07-13T01:55:38;3.63;;;1.80;;
15202;SDS011;7702;51.046;5.184;2023-07-13T01:58:03;2.90;;;2.00;;
15202;SDS011;7702;51.046;5.184;2023-07-13T02:00:29;6.00;;;2.00;;
15202;SDS011;7702;51.046;5.184;2023-07-13T02:02:56;6.27;;;2.30;;
15202;SDS011;7702;51.046;5.184;2023-07-13T02:05:21;4.03;;;2.07;;
15202;SDS011;7702;51.046;5.184;2023-07-13T02:07:47;5.10;;;2.07;;
15202;SDS011;7702;51.046;5.184;2023-07-13T02:10:14;6.37;;;2.10;;
15202;SDS011;7702;51.046;5.184;2023-07-13T02:12:40;4.83;;;2.27;;
15202;SDS011;7702;51.046;5.184;2023-07-13T02:15:07;4.93;;;1.93;;
15202;SDS011;7702;51.046;5.184;2023-07-13T02:17:33;4.53;;;1.83;;
15202;SDS011;7702;51.046;5.184;2023-07-13T02:20:01;6.03;;;2.23;;
15202;SDS011;7702;51.046;5.184;2023-07-13T02:22:28;5.13;;;2.13;;
15202;SDS011;7702;51.046;5.184;2023-07-13T02:24:54;6.80;;;2.23;;
15202;SDS011;7702;51.046;5.184;2023-07-13T02:27:19;4.83;;;2.20;;
15202;SDS011;7702;51.046;5.184;2023-07-13T02:29:46;7.10;;;2.30;;
15202;SDS011;7702;51.046;5.184;2023-07-13T02:32:11;4.63;;;2.10;;
15202;SDS011;7702;51.046;5.184;2023-07-13T02:34:37;9.10;;;2.97;;
15202;SDS011;7702;51.046;5.184;2023-07-13T02:37:03;5.87;;;2.13;;
15202;SDS011;7702;51.046;5.184;2023-07-13T02:39:29;5.73;;;2.27;;
15202;SDS011;7702;51.046;5.184;2023-07-13T02:41:58;4.47;;;1.90;;
15202;SDS011;7702;51.046;5.184;2023-07-13T02:44:24;6.93;;;2.50;;
15202;SDS011;7702;51.046;5.184;2023-07-13T02:46:49;3.47;;;2.30;;
15202;SDS011;7702;51.046;5.184;2023-07-13T02:49:15;8.13;;;2.40;;
15202;SDS011;7702;51.046;5.184;2023-07-13T02:51:41;4.70;;;2.07;;
15202;SDS011;7702;51.046;5.184;2023-07-13T02:54:06;6.50;;;2.07;;
15202;SDS011;7702;51.046;5.184;2023-07-13T02:56:33;6.93;;;2.40;;
15202;SDS011;7702;51.046;5.184;2023-07-13T02:58:59;6.63;;;2.53;;
15202;SDS011;7702;51.046;5.184;2023-07-13T03:01:25;6.40;;;2.10;;
15202;SDS011;7702;51.046;5.184;2023-07-13T03:03:51;3.83;;;2.30;;
15202;SDS011;7702;51.046;5.184;2023-07-13T03:06:18;6.83;;;2.10;;
15202;SDS011;7702;51.046;5.184;2023-07-13T03:08:44;8.60;;;2.50;;
15202;SDS011;7702;51.046;5.184;2023-07-13T03:11:11;6.17;;;2.30;;
15202;SDS011;7702;51.046;5.184;2023-07-13T03:13:39;4.87;;;2.33;;
15202;SDS011;7702;51.046;5.184;2023-07-13T03:16:06;8.37;;;2.63;;
15202;SDS011;7702;51.046;5.184;2023-07-13T03:18:33;7.57;;;2.50;;
15202;SDS011;7702;51.046;5.184;2023-07-13T03:21:00;5.43;;;2.37;;
15202;SDS011;7702;51.046;5.184;2023-07-13T03:23:26;7.87;;;2.40;;
15202;SDS011;7702;51.046;5.184;2023-07-13T03:26:02;6.40;;;2.70;;
15202;SDS011;7702;51.046;5.184;2023-07-13T03:28:30;6.33;;;2.53;;
15202;SDS011;7702;51.046;5.184;2023-07-13T03:31:06;4.90;;;2.23;;
15202;SDS011;7702;51.046;5.184;2023-07-13T03:33:34;7.90;;;2.33;;
15202;SDS011;7702;51.046;5.184;2023-07-13T03:36:00;3.73;;;2.33;;
15202;SDS011;7702;51.046;5.184;2023-07-13T03:38:27;7.73;;;3.10;;
15202;SDS011;7702;51.046;5.184;2023-07-13T03:40:53;7.90;;;2.40;;
15202;SDS011;7702;51.046;5.184;2023-07-13T03:43:19;5.80;;;2.67;;
15202;SDS011;7702;51.046;5.184;2023-07-13T03:45:45;7.20;;;2.87;;
15202;SDS011;7702;51.046;5.184;2023-07-13T03:48:11;11.03;;;3.50;;
15202;SDS011;7702;51.046;5.184;2023-07-13T03:50:38;6.87;;;2.70;;
15202;SDS011;7702;51.046;5.184;2023-07-13T03:53:03;4.43;;;2.73;;
15202;SDS011;7702;51.046;5.184;2023-07-13T03:55:29;4.40;;;2.43;;
15202;SDS011;7702;51.046;5.184;2023-07-13T03:57:59;6.23;;;2.57;;
15202;SDS011;7702;51.046;5.184;2023-07-13T04:00:45;5.50;;;2.73;;
15202;SDS011;7702;51.046;5.184;2023-07-13T04:03:11;5.77;;;2.97;;
15202;SDS011;7702;51.046;5.184;2023-07-13T04:05:37;7.60;;;3.23;;
15202;SDS011;7702;51.046;5.184;2023-07-13T04:08:05;4.50;;;2.40;;
15202;SDS011;7702;51.046;5.184;2023-07-13T04:10:31;9.73;;;3.20;;
15202;SDS011;7702;51.046;5.184;2023-07-13T04:12:57;5.33;;;2.40;;
15202;SDS011;7702;51.046;5.184;2023-07-13T04:15:22;7.00;;;3.10;;
15202;SDS011;7702;51.046;5.184;2023-07-13T04:17:48;6.43;;;2.50;;
15202;SDS011;7702;51.046;5.184;2023-07-13T04:20:13;5.47;;;2.63;;
15202;SDS011;7702;51.046;5.184;2023-07-13T04:22:39;6.47;;;2.90;;
15202;SDS011;7702;51.046;5.184;2023-07-13T04:25:05;6.73;;;2.73;;
15202;SDS011;7702;51.046;5.184;2023-07-13T04:27:31;5.93;;;2.97;;
15202;SDS011;7702;51.046;5.184;2023-07-13T04:29:57;5.73;;;2.40;;
15202;SDS011;7702;51.046;5.184;2023-07-13T04:32:23;12.07;;;2.90;;
15202;SDS011;7702;51.046;5.184;2023-07-13T04:34:49;5.70;;;3.10;;
15202;SDS011;7702;51.046;5.184;2023-07-13T04:37:19;9.67;;;2.87;;
15202;SDS011;7702;51.046;5.184;2023-07-13T04:39:45;6.70;;;2.87;;
15202;SDS011;7702;51.046;5.184;2023-07-13T04:42:11;5.70;;;2.57;;
15202;SDS011;7702;51.046;5.184;2023-07-13T04:44:37;7.30;;;2.50;;
15202;SDS011;7702;51.046;5.184;2023-07-13T04:47:03;5.17;;;2.43;;
15202;SDS011;7702;51.046;5.184;2023-07-13T04:49:29;5.50;;;2.60;;
15202;SDS011;7702;51.046;5.184;2023-07-13T04:51:55;6.10;;;2.50;;
15202;SDS011;7702;51.046;5.184;2023-07-13T04:54:21;4.70;;;2.50;;
15202;SDS011;7702;51.046;5.184;2023-07-13T04:56:47;4.40;;;2.17;;
15202;SDS011;7702;51.046;5.184;2023-07-13T04:59:13;6.53;;;2.83;;
15202;SDS011;7702;51.046;5.184;2023-07-13T05:01:38;6.67;;;2.47;;
15202;SDS011;7702;51.046;5.184;2023-07-13T05:04:05;7.13;;;2.43;;
15202;SDS011;7702;51.046;5.184;2023-07-13T05:06:31;5.77;;;3.10;;
15202;SDS011;7702;51.046;5.184;2023-07-13T05:08:57;7.10;;;2.80;;
15202;SDS011;7702;51.046;5.184;2023-07-13T05:11:23;11.30;;;2.73;;
15202;SDS011;7702;51.046;5.184;2023-07-13T05:13:49;5.70;;;2.30;;
15202;SDS011;7702;51.046;5.184;2023-07-13T05:16:14;9.20;;;2.87;;
15202;SDS011;7702;51.046;5.184;2023-07-13T05:18:40;7.60;;;2.83;;
15202;SDS011;7702;51.046;5.184;2023-07-13T05:21:07;7.33;;;3.20;;
15202;SDS011;7702;51.046;5.184;2023-07-13T05:23:34;6.70;;;2.50;;
15202;SDS011;7702;51.046;5.184;2023-07-13T05:26:01;7.60;;;3.07;;
15202;SDS011;7702;51.046;5.184;2023-07-13T05:28:30;7.77;;;2.57;;
15202;SDS011;7702;51.046;5.184;2023-07-13T05:30:57;6.63;;;2.47;;
15202;SDS011;7702;51.046;5.184;2023-07-13T05:33:23;10.03;;;2.73;;
15202;SDS011;7702;51.046;5.184;2023-07-13T05:35:49;6.80;;;2.60;;
15202;SDS011;7702;51.046;5.184;2023-07-13T05:38:16;7.40;;;2.67;;
15202;SDS011;7702;51.046;5.184;2023-07-13T05:40:45;8.43;;;2.90;;
15202;SDS011;7702;51.046;5.184;2023-07-13T05:43:11;6.77;;;2.60;;
15202;SDS011;7702;51.046;5.184;2023-07-13T05:45:37;7.30;;;2.70;;
15202;SDS011;7702;51.046;5.184;2023-07-13T05:48:03;8.23;;;3.13;;
15202;SDS011;7702;51.046;5.184;2023-07-13T05:50:29;9.43;;;2.50;;
15202;SDS011;7702;51.046;5.184;2023-07-13T05:52:55;10.90;;;2.73;;
15202;SDS011;7702;51.046;5.184;2023-07-13T05:55:21;7.33;;;2.67;;
15202;SDS011;7702;51.046;5.184;2023-07-13T05:57:47;5.67;;;2.80;;
15202;SDS011;7702;51.046;5.184;2023-07-13T06:00:13;8.77;;;2.67;;
15202;SDS011;7702;51.046;5.184;2023-07-13T06:02:40;9.90;;;3.80;;
15202;SDS011;7702;51.046;5.184;2023-07-13T06:05:06;7.00;;;3.00;;
15202;SDS011;7702;51.046;5.184;2023-07-13T06:07:32;8.77;;;3.13;;
15202;SDS011;7702;51.046;5.184;2023-07-13T06:09:57;10.50;;;3.00;;
15202;SDS011;7702;51.046;5.184;2023-07-13T06:12:24;9.03;;;3.33;;
15202;SDS011;7702;51.046;5.184;2023-07-13T06:14:50;7.63;;;2.90;;
15202;SDS011;7702;51.046;5.184;2023-07-13T06:17:16;8.37;;;3.30;;
15202;SDS011;7702;51.046;5.184;2023-07-13T06:19:41;12.17;;;3.37;;
15202;SDS011;7702;51.046;5.184;2023-07-13T06:22:07;6.57;;;3.10;;
15202;SDS011;7702;51.046;5.184;2023-07-13T06:24:33;10.30;;;4.00;;
15202;SDS011;7702;51.046;5.184;2023-07-13T06:27:00;9.33;;;3.17;;
15202;SDS011;7702;51.046;5.184;2023-07-13T06:29:26;12.33;;;4.40;;
15202;SDS011;7702;51.046;5.184;2023-07-13T06:31:52;9.37;;;3.03;;
15202;SDS011;7702;51.046;5.184;2023-07-13T06:34:18;7.53;;;3.20;;
15202;SDS011;7702;51.046;5.184;2023-07-13T06:36:44;9.57;;;2.67;;
15202;SDS011;7702;51.046;5.184;2023-07-13T06:39:09;9.90;;;2.97;;
15202;SDS011;7702;51.046;5.184;2023-07-13T06:41:35;7.50;;;3.17;;
15202;SDS011;7702;51.046;5.184;2023-07-13T06:44:01;13.47;;;3.80;;
15202;SDS011;7702;51.046;5.184;2023-07-13T06:46:28;8.43;;;3.10;;
15202;SDS011;7702;51.046;5.184;2023-07-13T06:48:54;9.20;;;3.40;;
15202;SDS011;7702;51.046;5.184;2023-07-13T06:51:19;6.47;;;3.43;;
15202;SDS011;7702;51.046;5.184;2023-07-13T06:53:45;9.97;;;3.70;;
15202;SDS011;7702;51.046;5.184;2023-07-13T06:56:11;9.93;;;3.73;;
15202;SDS011;7702;51.046;5.184;2023-07-13T06:58:36;8.77;;;3.20;;
15202;SDS011;7702;51.046;5.184;2023-07-13T07:01:03;9.47;;;3.73;;
15202;SDS011;7702;51.046;5.184;2023-07-13T07:03:30;8.40;;;3.40;;
15202;SDS011;7702;51.046;5.184;2023-07-13T07:06:06;11.10;;;3.80;;
15202;SDS011;7702;51.046;5.184;2023-07-13T07:08:34;15.67;;;3.70;;
15202;SDS011;7702;51.046;5.184;2023-07-13T07:10:59;12.40;;;4.47;;
15202;SDS011;7702;51.046;5.184;2023-07-13T07:13:25;14.20;;;3.83;;
15202;SDS011;7702;51.046;5.184;2023-07-13T07:15:53;9.23;;;3.53;;
15202;SDS011;7702;51.046;5.184;2023-07-13T07:18:19;9.47;;;4.57;;
15202;SDS011;7702;51.046;5.184;2023-07-13T07:20:44;9.27;;;3.27;;
15202;SDS011;7702;51.046;5.184;2023-07-13T07:23:10;8.07;;;3.90;;
15202;SDS011;7702;51.046;5.184;2023-07-13T07:25:36;9.07;;;3.30;;
15202;SDS011;7702;51.046;5.184;2023-07-13T07:28:07;7.60;;;4.00;;
15202;SDS011;7702;51.046;5.184;2023-07-13T07:30:33;10.60;;;3.70;;
15202;SDS011;7702;51.046;5.184;2023-07-13T07:32:59;11.50;;;3.80;;
15202;SDS011;7702;51.046;5.184;2023-07-13T07:35:26;11.03;;;4.37;;
15202;SDS011;7702;51.046;5.184;2023-07-13T07:37:51;8.80;;;3.30;;
15202;SDS011;7702;51.046;5.184;2023-07-13T07:40:18;11.30;;;3.57;;
15202;SDS011;7702;51.046;5.184;2023-07-13T07:42:44;10.70;;;4.60;;
15202;SDS011;7702;51.046;5.184;2023-07-13T07:45:09;10.27;;;3.40;;
15202;SDS011;7702;51.046;5.184;2023-07-13T07:47:36;9.63;;;3.33;;
15202;SDS011;7702;51.046;5.184;2023-07-13T07:50:03;9.10;;;3.77;;
15202;SDS011;7702;51.046;5.184;2023-07-13T07:52:29;10.30;;;3.97;;
15202;SDS011;7702;51.046;5.184;2023-07-13T07:54:54;12.40;;;4.20;;
15202;SDS011;7702;51.046;5.184;2023-07-13T07:57:20;11.50;;;3.73;;
15202;SDS011;7702;51.046;5.184;2023-07-13T07:59:46;13.00;;;3.87;;
15202;SDS011;7702;51.046;5.184;2023-07-13T08:02:13;8.97;;;4.10;;
15202;SDS011;7702;51.046;5.184;2023-07-13T08:04:39;10.47;;;3.50;;
15202;SDS011;7702;51.046;5.184;2023-07-13T08:07:04;7.53;;;3.50;;
15202;SDS011;7702;51.046;5.184;2023-07-13T08:09:30;10.93;;;3.67;;
15202;SDS011;7702;51.046;5.184;2023-07-13T08:11:56;10.17;;;3.53;;
15202;SDS011;7702;51.046;5.184;2023-07-13T08:14:21;6.63;;;3.33;;
15202;SDS011;7702;51.046;5.184;2023-07-13T08:16:47;10.33;;;3.60;;
15202;SDS011;7702;51.046;5.184;2023-07-13T08:19:13;7.80;;;3.23;;
15202;SDS011;7702;51.046;5.184;2023-07-13T08:21:38;6.07;;;3.03;;
15202;SDS011;7702;51.046;5.184;2023-07-13T08:24:04;6.23;;;2.90;;
15202;SDS011;7702;51.046;5.184;2023-07-13T08:26:30;8.57;;;2.90;;
15202;SDS011;7702;51.046;5.184;2023-07-13T08:28:55;10.83;;;3.23;;
15202;SDS011;7702;51.046;5.184;2023-07-13T08:31:22;14.10;;;4.33;;
15202;SDS011;7702;51.046;5.184;2023-07-13T08:33:47;9.40;;;3.90;;
15202;SDS011;7702;51.046;5.184;2023-07-13T08:36:13;8.67;;;3.70;;
15202;SDS011;7702;51.046;5.184;2023-07-13T08:38:39;10.40;;;3.50;;
15202;SDS011;7702;51.046;5.184;2023-07-13T08:41:12;7.83;;;2.70;;
15202;SDS011;7702;51.046;5.184;2023-07-13T08:43:39;6.90;;;3.10;;
15202;SDS011;7702;51.046;5.184;2023-07-13T08:46:09;9.30;;;3.10;;
15202;SDS011;7702;51.046;5.184;2023-07-13T08:48:50;6.40;;;2.70;;
15202;SDS011;7702;51.046;5.184;2023-07-13T08:51:44;8.10;;;3.30;;
15202;SDS011;7702;51.046;5.184;2023-07-13T08:54:34;9.67;;;3.07;;
15202;SDS011;7702;51.046;5.184;2023-07-13T08:57:08;9.17;;;3.00;;
15202;SDS011;7702;51.046;5.184;2023-07-13T08:59:41;10.00;;;3.30;;
15202;SDS011;7702;51.046;5.184;2023-07-13T09:04:43;6.33;;;2.70;;
15202;SDS011;7702;51.046;5.184;2023-07-13T09:07:21;10.83;;;2.83;;
15202;SDS011;7702;51.046;5.184;2023-07-13T09:13:22;5.17;;;2.87;;
15202;SDS011;7702;51.046;5.184;2023-07-13T09:15:43;6.50;;;2.90;;
15202;SDS011;7702;51.046;5.184;2023-07-13T09:18:22;4.90;;;2.73;;
15202;SDS011;7702;51.046;5.184;2023-07-13T09:20:57;7.43;;;2.87;;
15202;SDS011;7702;51.046;5.184;2023-07-13T09:23:28;6.40;;;2.53;;
15202;SDS011;7702;51.046;5.184;2023-07-13T09:26:06;6.30;;;3.10;;
15202;SDS011;7702;51.046;5.184;2023-07-13T09:28:42;10.30;;;3.13;;
15202;SDS011;7702;51.046;5.184;2023-07-13T09:31:14;6.87;;;2.50;;
15202;SDS011;7702;51.046;5.184;2023-07-13T09:33:43;7.37;;;2.70;;
15202;SDS011;7702;51.046;5.184;2023-07-13T09:38:58;6.73;;;2.37;;
15202;SDS011;7702;51.046;5.184;2023-07-13T09:41:45;6.37;;;2.60;;
15202;SDS011;7702;51.046;5.184;2023-07-13T09:44:14;7.93;;;2.90;;
15202;SDS011;7702;51.046;5.184;2023-07-13T09:46:45;6.70;;;2.73;;
15202;SDS011;7702;51.046;5.184;2023-07-13T09:49:17;8.27;;;2.97;;
15202;SDS011;7702;51.046;5.184;2023-07-13T09:51:43;3.70;;;2.20;;
15202;SDS011;7702;51.046;5.184;2023-07-13T09:54:19;5.97;;;2.50;;
15202;SDS011;7702;51.046;5.184;2023-07-13T09:56:46;7.37;;;2.50;;
15202;SDS011;7702;51.046;5.184;2023-07-13T09:59:18;4.67;;;2.37;;
15202;SDS011;7702;51.046;5.184;2023-07-13T10:01:49;4.43;;;2.50;;
15202;SDS011;7702;51.046;5.184;2023-07-13T10:04:17;3.67;;;2.10;;
15202;SDS011;7702;51.046;5.184;2023-07-13T10:06:44;8.90;;;2.80;;
15202;SDS011;7702;51.046;5.184;2023-07-13T10:09:13;5.50;;;2.60;;
15202;SDS011;7702;51.046;5.184;2023-07-13T10:11:43;8.30;;;2.43;;
15202;SDS011;7702;51.046;5.184;2023-07-13T10:14:13;5.20;;;2.27;;
15202;SDS011;7702;51.046;5.184;2023-07-13T10:16:43;6.57;;;2.33;;
15202;SDS011;7702;51.046;5.184;2023-07-13T10:19:12;7.53;;;2.30;;
15202;SDS011;7702;51.046;5.184;2023-07-13T10:24:23;7.37;;;2.33;;
15202;SDS011;7702;51.046;5.184;2023-07-13T10:26:58;6.17;;;2.17;;
15202;SDS011;7702;51.046;5.184;2023-07-13T10:29:30;6.50;;;2.30;;
15202;SDS011;7702;51.046;5.184;2023-07-13T10:32:01;2.27;;;1.60;;
15202;SDS011;7702;51.046;5.184;2023-07-13T10:34:28;6.87;;;2.00;;
15202;SDS011;7702;51.046;5.184;2023-07-13T10:36:54;3.67;;;1.57;;
15202;SDS011;7702;51.046;5.184;2023-07-13T10:39:22;7.77;;;2.00;;
15202;SDS011;7702;51.046;5.184;2023-07-13T10:41:55;2.80;;;1.57;;
15202;SDS011;7702;51.046;5.184;2023-07-13T10:44:29;5.77;;;2.10;;
15202;SDS011;7702;51.046;5.184;2023-07-13T10:47:18;4.33;;;1.83;;
15202;SDS011;7702;51.046;5.184;2023-07-13T10:49:43;2.77;;;1.40;;
15202;SDS011;7702;51.046;5.184;2023-07-13T10:52:37;3.43;;;1.53;;
15202;SDS011;7702;51.046;5.184;2023-07-13T11:03:17;6.27;;;1.93;;
15202;SDS011;7702;51.046;5.184;2023-07-13T11:05:47;3.53;;;1.67;;
15202;SDS011;7702;51.046;5.184;2023-07-13T11:08:36;4.83;;;1.83;;
15202;SDS011;7702;51.046;5.184;2023-07-13T11:16:38;4.37;;;1.80;;
15202;SDS011;7702;51.046;5.184;2023-07-13T11:22:41;3.00;;;1.30;;
15202;SDS011;7702;51.046;5.184;2023-07-13T11:24:29;4.03;;;1.60;;
15202;SDS011;7702;51.046;5.184;2023-07-13T11:33:12;2.93;;;1.30;;
15202;SDS011;7702;51.046;5.184;2023-07-13T11:36:29;2.67;;;1.30;;
15202;SDS011;7702;51.046;5.184;2023-07-13T11:38:36;2.10;;;1.60;;
15202;SDS011;7702;51.046;5.184;2023-07-13T11:43:55;4.77;;;2.00;;
15202;SDS011;7702;51.046;5.184;2023-07-13T11:46:28;3.10;;;1.60;;
15202;SDS011;7702;51.046;5.184;2023-07-13T11:48:54;2.93;;;1.60;;
15202;SDS011;7702;51.046;5.184;2023-07-13T11:53:51;3.03;;;1.50;;
15202;SDS011;7702;51.046;5.184;2023-07-13T11:56:18;2.77;;;1.73;;
15202;SDS011;7702;51.046;5.184;2023-07-13T11:58:47;3.10;;;1.53;;
15202;SDS011;7702;51.046;5.184;2023-07-13T12:01:17;2.87;;;1.63;;
15202;SDS011;7702;51.046;5.184;2023-07-13T12:03:48;4.73;;;1.97;;
15202;SDS011;7702;51.046;5.184;2023-07-13T12:06:24;3.17;;;1.70;;
15202;SDS011;7702;51.046;5.184;2023-07-13T12:08:55;3.83;;;1.80;;
15202;SDS011;7702;51.046;5.184;2023-07-13T12:11:24;3.07;;;1.50;;
15202;SDS011;7702;51.046;5.184;2023-07-13T12:13:50;4.03;;;1.60;;
15202;SDS011;7702;51.046;5.184;2023-07-13T12:16:21;3.70;;;1.47;;
15202;SDS011;7702;51.046;5.184;2023-07-13T12:18:49;3.27;;;1.50;;
15202;SDS011;7702;51.046;5.184;2023-07-13T12:21:18;3.23;;;1.87;;
15202;SDS011;7702;51.046;5.184;2023-07-13T12:23:47;2.40;;;1.10;;
15202;SDS011;7702;51.046;5.184;2023-07-13T12:26:14;3.17;;;1.67;;
15202;SDS011;7702;51.046;5.184;2023-07-13T12:28:49;3.50;;;1.73;;
15202;SDS011;7702;51.046;5.184;2023-07-13T12:34:10;3.20;;;1.83;;
15202;SDS011;7702;51.046;5.184;2023-07-13T12:36:38;3.67;;;1.87;;
15202;SDS011;7702;51.046;5.184;2023-07-13T12:41:43;3.47;;;1.43;;
15202;SDS011;7702;51.046;5.184;2023-07-13T12:44:11;2.60;;;1.30;;
15202;SDS011;7702;51.046;5.184;2023-07-13T12:46:39;2.53;;;1.50;;
15202;SDS011;7702;51.046;5.184;2023-07-13T12:49:06;1.83;;;1.43;;
15202;SDS011;7702;51.046;5.184;2023-07-13T12:51:32;3.50;;;1.47;;
15202;SDS011;7702;51.046;5.184;2023-07-13T12:54:19;2.80;;;1.80;;
15202;SDS011;7702;51.046;5.184;2023-07-13T12:56:44;2.63;;;1.40;;
15202;SDS011;7702;51.046;5.184;2023-07-13T12:59:18;3.97;;;1.40;;
15202;SDS011;7702;51.046;5.184;2023-07-13T13:01:46;3.43;;;1.87;;
15202;SDS011;7702;51.046;5.184;2023-07-13T13:04:14;2.57;;;1.37;;
15202;SDS011;7702;51.046;5.184;2023-07-13T13:06:41;5.20;;;1.47;;
15202;SDS011;7702;51.046;5.184;2023-07-13T13:09:12;1.80;;;1.43;;
15202;SDS011;7702;51.046;5.184;2023-07-13T13:11:39;4.00;;;2.23;;
15202;SDS011;7702;51.046;5.184;2023-07-13T13:14:06;2.20;;;1.70;;
15202;SDS011;7702;51.046;5.184;2023-07-13T13:16:34;3.63;;;2.00;;
15202;SDS011;7702;51.046;5.184;2023-07-13T13:21:52;3.40;;;2.23;;
15202;SDS011;7702;51.046;5.184;2023-07-13T13:24:21;2.93;;;2.33;;
15202;SDS011;7702;51.046;5.184;2023-07-13T13:26:49;3.83;;;2.50;;
15202;SDS011;7702;51.046;5.184;2023-07-13T13:29:17;4.73;;;2.50;;
15202;SDS011;7702;51.046;5.184;2023-07-13T13:31:45;3.83;;;2.53;;
15202;SDS011;7702;51.046;5.184;2023-07-13T13:34:17;3.80;;;2.43;;
15202;SDS011;7702;51.046;5.184;2023-07-13T13:36:44;3.87;;;2.30;;
15202;SDS011;7702;51.046;5.184;2023-07-13T13:39:19;6.17;;;2.90;;
15202;SDS011;7702;51.046;5.184;2023-07-13T13:41:51;3.23;;;2.47;;
15202;SDS011;7702;51.046;5.184;2023-07-13T13:44:18;5.80;;;2.80;;
15202;SDS011;7702;51.046;5.184;2023-07-13T13:46:45;2.93;;;2.60;;
15202;SDS011;7702;51.046;5.184;2023-07-13T13:49:17;4.03;;;2.50;;
15202;SDS011;7702;51.046;5.184;2023-07-13T13:51:44;3.33;;;2.50;;
15202;SDS011;7702;51.046;5.184;2023-07-13T13:54:14;3.27;;;2.20;;
15202;SDS011;7702;51.046;5.184;2023-07-13T13:56:42;3.03;;;2.63;;
15202;SDS011;7702;51.046;5.184;2023-07-13T13:59:09;3.97;;;2.73;;
15202;SDS011;7702;51.046;5.184;2023-07-13T14:01:35;3.30;;;3.00;;
15202;SDS011;7702;51.046;5.184;2023-07-13T14:04:02;5.70;;;3.93;;
15202;SDS011;7702;51.046;5.184;2023-07-13T14:06:28;6.43;;;4.00;;
15202;SDS011;7702;51.046;5.184;2023-07-13T14:08:53;4.43;;;3.10;;
15202;SDS011;7702;51.046;5.184;2023-07-13T14:11:20;5.17;;;2.83;;
15202;SDS011;7702;51.046;5.184;2023-07-13T14:13:51;3.57;;;2.70;;
15202;SDS011;7702;51.046;5.184;2023-07-13T14:16:20;3.70;;;2.27;;
15202;SDS011;7702;51.046;5.184;2023-07-13T14:18:48;2.53;;;2.30;;
15202;SDS011;7702;51.046;5.184;2023-07-13T14:21:17;2.83;;;2.57;;
15202;SDS011;7702;51.046;5.184;2023-07-13T14:23:45;2.93;;;2.20;;
15202;SDS011;7702;51.046;5.184;2023-07-13T14:26:12;2.57;;;2.27;;
15202;SDS011;7702;51.046;5.184;2023-07-13T14:28:42;2.57;;;2.20;;
15202;SDS011;7702;51.046;5.184;2023-07-13T14:31:10;4.30;;;2.50;;
15202;SDS011;7702;51.046;5.184;2023-07-13T14:33:37;2.17;;;1.90;;
15202;SDS011;7702;51.046;5.184;2023-07-13T14:36:03;2.00;;;1.73;;
15202;SDS011;7702;51.046;5.184;2023-07-13T14:38:40;4.63;;;2.37;;
15202;SDS011;7702;51.046;5.184;2023-07-13T14:41:07;4.43;;;2.10;;
15202;SDS011;7702;51.046;5.184;2023-07-13T14:43:33;2.03;;;1.83;;
15202;SDS011;7702;51.046;5.184;2023-07-13T14:45:59;2.37;;;2.00;;
15202;SDS011;7702;51.046;5.184;2023-07-13T14:48:25;2.30;;;1.53;;
15202;SDS011;7702;51.046;5.184;2023-07-13T14:50:55;2.77;;;1.80;;
15202;SDS011;7702;51.046;5.184;2023-07-13T14:53:22;4.17;;;1.77;;
15202;SDS011;7702;51.046;5.184;2023-07-13T14:55:48;1.97;;;1.60;;
15202;SDS011;7702;51.046;5.184;2023-07-13T14:58:14;1.77;;;1.67;;
15202;SDS011;7702;51.046;5.184;2023-07-13T15:00:39;2.67;;;2.17;;
15202;SDS011;7702;51.046;5.184;2023-07-13T15:03:08;2.40;;;1.43;;
15202;SDS011;7702;51.046;5.184;2023-07-13T15:05:49;1.80;;;1.70;;
15202;SDS011;7702;51.046;5.184;2023-07-13T15:08:15;2.87;;;1.80;;
15202;SDS011;7702;51.046;5.184;2023-07-13T15:10:41;1.60;;;1.30;;
15202;SDS011;7702;51.046;5.184;2023-07-13T15:13:15;2.00;;;1.43;;
15202;SDS011;7702;51.046;5.184;2023-07-13T15:15:43;2.60;;;1.50;;
15202;SDS011;7702;51.046;5.184;2023-07-13T15:18:11;2.47;;;1.40;;
15202;SDS011;7702;51.046;5.184;2023-07-13T15:20:39;1.43;;;1.33;;
15202;SDS011;7702;51.046;5.184;2023-07-13T15:23:05;2.63;;;1.70;;
15202;SDS011;7702;51.046;5.184;2023-07-13T15:25:32;2.50;;;1.47;;
15202;SDS011;7702;51.046;5.184;2023-07-13T15:27:58;1.53;;;1.30;;
15202;SDS011;7702;51.046;5.184;2023-07-13T15:30:27;2.23;;;1.40;;
15202;SDS011;7702;51.046;5.184;2023-07-13T15:33:00;1.43;;;1.33;;
15202;SDS011;7702;51.046;5.184;2023-07-13T15:35:36;2.30;;;1.50;;
15202;SDS011;7702;51.046;5.184;2023-07-13T15:38:01;1.97;;;1.50;;
15202;SDS011;7702;51.046;5.184;2023-07-13T15:40:42;2.67;;;1.47;;
15202;SDS011;7702;51.046;5.184;2023-07-13T15:43:11;1.80;;;1.53;;
15202;SDS011;7702;51.046;5.184;2023-07-13T15:45:38;2.63;;;1.27;;
15202;SDS011;7702;51.046;5.184;2023-07-13T15:48:11;3.80;;;1.60;;
15202;SDS011;7702;51.046;5.184;2023-07-13T15:50:47;1.93;;;1.50;;
15202;SDS011;7702;51.046;5.184;2023-07-13T15:53:17;3.77;;;1.80;;
15202;SDS011;7702;51.046;5.184;2023-07-13T15:55:53;2.73;;;1.47;;